sensor_id;sensor_type;location;lat;lon;timestamp;temperature;humidity
20158;DHT22;10239;56.820;24.416;2022-10-17T00:00:58;13.40;99.90
20158;DHT22;10239;56.820;24.416;2022-10-17T00:03:26;13.40;99.90
20158;DHT22;10239;56.820;24.416;2022-10-17T00:05:53;13.40;99.90
20158;DHT22;10239;56.820;24.416;2022-10-17T00:08:21;13.30;99.90
20158;DHT22;10239;56.820;24.416;2022-10-17T00:10:57;13.30;99.90
20158;DHT22;10239;56.820;24.416;2022-10-17T00:13:25;13.40;99.90
20158;DHT22;10239;56.820;24.416;2022-10-17T00:15:53;13.30;99.90
20158;DHT22;10239;56.820;24.416;2022-10-17T00:18:21;13.30;99.90
20158;DHT22;10239;56.820;24.416;2022-10-17T00:20:49;13.30;99.90
20158;DHT22;10239;56.820;24.416;2022-10-17T00:23:17;13.30;99.90
20158;DHT22;10239;56.820;24.416;2022-10-17T00:25:45;13.20;99.90
20158;DHT22;10239;56.820;24.416;2022-10-17T00:28:14;13.20;99.90
20158;DHT22;10239;56.820;24.416;2022-10-17T00:30:41;13.20;99.90
20158;DHT22;10239;56.820;24.416;2022-10-17T00:33:09;13.20;99.90
20158;DHT22;10239;56.820;24.416;2022-10-17T00:35:37;13.20;99.90
20158;DHT22;10239;56.820;24.416;2022-10-17T00:38:04;13.20;99.90
20158;DHT22;10239;56.820;24.416;2022-10-17T00:40:32;13.10;99.90
20158;DHT22;10239;56.820;24.416;2022-10-17T00:43:00;13.10;99.90
20158;DHT22;10239;56.820;24.416;2022-10-17T00:45:29;13.00;99.90
20158;DHT22;10239;56.820;24.416;2022-10-17T00:48:03;13.00;99.90
20158;DHT22;10239;56.820;24.416;2022-10-17T00:50:33;13.00;99.90
20158;DHT22;10239;56.820;24.416;2022-10-17T00:53:05;12.90;99.90
20158;DHT22;10239;56.820;24.416;2022-10-17T00:55:38;12.90;99.90
20158;DHT22;10239;56.820;24.416;2022-10-17T00:58:08;12.90;99.90
20158;DHT22;10239;56.820;24.416;2022-10-17T01:00:37;12.80;99.90
20158;DHT22;10239;56.820;24.416;2022-10-17T01:03:04;12.80;99.90
20158;DHT22;10239;56.820;24.416;2022-10-17T01:05:32;12.70;99.90
20158;DHT22;10239;56.820;24.416;2022-10-17T01:08:00;12.70;99.90
20158;DHT22;10239;56.820;24.416;2022-10-17T01:11:15;12.60;99.90
20158;DHT22;10239;56.820;24.416;2022-10-17T01:13:43;12.50;99.90
20158;DHT22;10239;56.820;24.416;2022-10-17T01:16:21;12.50;99.90
20158;DHT22;10239;56.820;24.416;2022-10-17T01:21:52;12.40;99.90
20158;DHT22;10239;56.820;24.416;2022-10-17T01:24:47;12.40;99.90
20158;DHT22;10239;56.820;24.416;2022-10-17T01:35:54;12.30;99.90
20158;DHT22;10239;56.820;24.416;2022-10-17T01:38:49;12.20;99.90
20158;DHT22;10239;56.820;24.416;2022-10-17T01:41:51;12.20;99.90
20158;DHT22;10239;56.820;24.416;2022-10-17T01:47:07;12.20;99.90
20158;DHT22;10239;56.820;24.416;2022-10-17T01:49:38;12.20;99.90
20158;DHT22;10239;56.820;24.416;2022-10-17T01:52:36;12.10;99.90
20158;DHT22;10239;56.820;24.416;2022-10-17T01:55:13;12.00;99.90
20158;DHT22;10239;56.820;24.416;2022-10-17T01:57:48;12.00;99.90
20158;DHT22;10239;56.820;24.416;2022-10-17T02:00:21;12.00;99.90
20158;DHT22;10239;56.820;24.416;2022-10-17T02:02:58;11.90;99.90
20158;DHT22;10239;56.820;24.416;2022-10-17T02:05:36;11.90;99.90
20158;DHT22;10239;56.820;24.416;2022-10-17T02:08:05;12.00;99.90
20158;DHT22;10239;56.820;24.416;2022-10-17T02:10:35;12.00;99.90
20158;DHT22;10239;56.820;24.416;2022-10-17T02:18:50;12.00;99.90
20158;DHT22;10239;56.820;24.416;2022-10-17T02:21:27;12.00;99.90
20158;DHT22;10239;56.820;24.416;2022-10-17T02:26:45;12.00;99.90
20158;DHT22;10239;56.820;24.416;2022-10-17T02:29:22;12.00;99.90
20158;DHT22;10239;56.820;24.416;2022-10-17T02:32:13;11.90;99.90
20158;DHT22;10239;56.820;24.416;2022-10-17T02:34:47;11.90;99.90
20158;DHT22;10239;56.820;24.416;2022-10-17T02:37:21;11.90;99.90
20158;DHT22;10239;56.820;24.416;2022-10-17T02:39:50;12.00;99.90
20158;DHT22;10239;56.820;24.416;2022-10-17T02:42:20;12.00;99.90
20158;DHT22;10239;56.820;24.416;2022-10-17T02:44:50;12.00;99.90
20158;DHT22;10239;56.820;24.416;2022-10-17T02:47:28;12.00;99.90
20158;DHT22;10239;56.820;24.416;2022-10-17T02:49:57;11.90;99.90
20158;DHT22;10239;56.820;24.416;2022-10-17T02:52:42;12.00;99.90
20158;DHT22;10239;56.820;24.416;2022-10-17T02:55:31;11.90;99.90
20158;DHT22;10239;56.820;24.416;2022-10-17T02:58:10;11.90;99.90
20158;DHT22;10239;56.820;24.416;2022-10-17T03:00:39;12.00;99.90
20158;DHT22;10239;56.820;24.416;2022-10-17T03:03:28;12.00;99.90
20158;DHT22;10239;56.820;24.416;2022-10-17T03:06:00;11.90;99.90
20158;DHT22;10239;56.820;24.416;2022-10-17T03:08:28;11.90;99.90
20158;DHT22;10239;56.820;24.416;2022-10-17T03:10:55;11.90;99.90
20158;DHT22;10239;56.820;24.416;2022-10-17T03:13:25;11.90;99.90
20158;DHT22;10239;56.820;24.416;2022-10-17T03:15:53;11.90;99.90
20158;DHT22;10239;56.820;24.416;2022-10-17T03:18:22;11.80;99.90
20158;DHT22;10239;56.820;24.416;2022-10-17T03:20:55;11.80;99.90
20158;DHT22;10239;56.820;24.416;2022-10-17T03:23:22;11.90;99.90
20158;DHT22;10239;56.820;24.416;2022-10-17T03:25:51;11.80;99.90
20158;DHT22;10239;56.820;24.416;2022-10-17T03:28:18;11.80;99.90
20158;DHT22;10239;56.820;24.416;2022-10-17T03:30:46;11.80;99.90
20158;DHT22;10239;56.820;24.416;2022-10-17T03:33:14;11.80;99.90
20158;DHT22;10239;56.820;24.416;2022-10-17T03:35:41;11.80;99.90
20158;DHT22;10239;56.820;24.416;2022-10-17T03:38:09;11.80;99.90
20158;DHT22;10239;56.820;24.416;2022-10-17T03:40:37;11.80;99.90
20158;DHT22;10239;56.820;24.416;2022-10-17T03:43:05;11.70;99.90
20158;DHT22;10239;56.820;24.416;2022-10-17T03:45:32;11.80;99.90
20158;DHT22;10239;56.820;24.416;2022-10-17T03:48:00;11.80;99.90
20158;DHT22;10239;56.820;24.416;2022-10-17T03:50:28;11.80;99.90
20158;DHT22;10239;56.820;24.416;2022-10-17T03:52:57;11.80;99.90
20158;DHT22;10239;56.820;24.416;2022-10-17T03:55:25;11.70;99.90
20158;DHT22;10239;56.820;24.416;2022-10-17T03:58:01;11.70;99.90
20158;DHT22;10239;56.820;24.416;2022-10-17T04:00:29;11.70;99.90
20158;DHT22;10239;56.820;24.416;2022-10-17T04:02:57;11.60;99.90
20158;DHT22;10239;56.820;24.416;2022-10-17T04:05:26;11.60;99.90
20158;DHT22;10239;56.820;24.416;2022-10-17T04:07:54;11.60;99.90
20158;DHT22;10239;56.820;24.416;2022-10-17T04:10:46;11.60;99.90
20158;DHT22;10239;56.820;24.416;2022-10-17T04:13:14;11.60;99.90
20158;DHT22;10239;56.820;24.416;2022-10-17T04:15:42;11.60;99.90
20158;DHT22;10239;56.820;24.416;2022-10-17T04:18:11;11.60;99.90
20158;DHT22;10239;56.820;24.416;2022-10-17T04:20:38;11.50;99.90
20158;DHT22;10239;56.820;24.416;2022-10-17T04:23:06;11.50;99.90
20158;DHT22;10239;56.820;24.416;2022-10-17T04:25:34;11.50;99.90
20158;DHT22;10239;56.820;24.416;2022-10-17T04:28:03;11.40;99.90
20158;DHT22;10239;56.820;24.416;2022-10-17T04:30:31;11.40;99.90
20158;DHT22;10239;56.820;24.416;2022-10-17T04:32:58;11.40;99.90
20158;DHT22;10239;56.820;24.416;2022-10-17T04:35:28;11.40;99.90
20158;DHT22;10239;56.820;24.416;2022-10-17T04:38:01;11.40;99.90
20158;DHT22;10239;56.820;24.416;2022-10-17T04:40:28;11.40;99.90
20158;DHT22;10239;56.820;24.416;2022-10-17T04:42:58;11.40;99.90
20158;DHT22;10239;56.820;24.416;2022-10-17T04:45:32;11.40;99.90
20158;DHT22;10239;56.820;24.416;2022-10-17T04:48:02;11.40;99.90
20158;DHT22;10239;56.820;24.416;2022-10-17T04:50:30;11.50;99.90
20158;DHT22;10239;56.820;24.416;2022-10-17T04:53:30;11.40;99.90
20158;DHT22;10239;56.820;24.416;2022-10-17T04:55:58;11.30;99.90
20158;DHT22;10239;56.820;24.416;2022-10-17T04:58:28;11.40;99.90
20158;DHT22;10239;56.820;24.416;2022-10-17T05:00:56;11.30;99.90
20158;DHT22;10239;56.820;24.416;2022-10-17T05:03:27;11.30;99.90
20158;DHT22;10239;56.820;24.416;2022-10-17T05:05:55;11.30;99.90
20158;DHT22;10239;56.820;24.416;2022-10-17T05:08:23;11.30;99.90
20158;DHT22;10239;56.820;24.416;2022-10-17T05:10:51;11.30;99.90
20158;DHT22;10239;56.820;24.416;2022-10-17T05:13:19;11.30;99.90
20158;DHT22;10239;56.820;24.416;2022-10-17T05:15:46;11.30;99.90
20158;DHT22;10239;56.820;24.416;2022-10-17T05:18:15;11.40;99.90
20158;DHT22;10239;56.820;24.416;2022-10-17T05:20:43;11.40;99.90
20158;DHT22;10239;56.820;24.416;2022-10-17T05:23:11;11.50;99.90
20158;DHT22;10239;56.820;24.416;2022-10-17T05:25:41;11.50;99.90
20158;DHT22;10239;56.820;24.416;2022-10-17T05:28:10;11.50;99.90
20158;DHT22;10239;56.820;24.416;2022-10-17T05:30:40;11.60;99.90
20158;DHT22;10239;56.820;24.416;2022-10-17T05:33:08;11.50;99.90
20158;DHT22;10239;56.820;24.416;2022-10-17T05:35:36;11.60;99.90
20158;DHT22;10239;56.820;24.416;2022-10-17T05:38:04;11.70;99.90
20158;DHT22;10239;56.820;24.416;2022-10-17T05:40:33;11.80;99.90
20158;DHT22;10239;56.820;24.416;2022-10-17T05:43:01;11.90;99.90
20158;DHT22;10239;56.820;24.416;2022-10-17T05:45:29;12.20;99.90
20158;DHT22;10239;56.820;24.416;2022-10-17T05:47:58;12.70;99.90
20158;DHT22;10239;56.820;24.416;2022-10-17T05:50:25;13.50;99.90
20158;DHT22;10239;56.820;24.416;2022-10-17T05:53:15;14.30;99.90
20158;DHT22;10239;56.820;24.416;2022-10-17T05:55:55;15.20;99.90
20158;DHT22;10239;56.820;24.416;2022-10-17T05:58:22;15.90;99.90
20158;DHT22;10239;56.820;24.416;2022-10-17T06:01:19;16.30;99.90
20158;DHT22;10239;56.820;24.416;2022-10-17T06:03:47;17.10;99.90
20158;DHT22;10239;56.820;24.416;2022-10-17T06:06:15;17.80;99.90
20158;DHT22;10239;56.820;24.416;2022-10-17T06:08:45;18.40;99.90
20158;DHT22;10239;56.820;24.416;2022-10-17T06:11:18;18.80;99.90
20158;DHT22;10239;56.820;24.416;2022-10-17T06:13:45;19.30;99.90
20158;DHT22;10239;56.820;24.416;2022-10-17T06:16:20;19.60;99.90
20158;DHT22;10239;56.820;24.416;2022-10-17T06:18:48;19.70;99.90
20158;DHT22;10239;56.820;24.416;2022-10-17T06:21:20;19.70;99.90
20158;DHT22;10239;56.820;24.416;2022-10-17T06:23:49;20.00;99.90
20158;DHT22;10239;56.820;24.416;2022-10-17T06:26:26;20.50;99.90
20158;DHT22;10239;56.820;24.416;2022-10-17T06:28:54;20.90;99.90
20158;DHT22;10239;56.820;24.416;2022-10-17T06:31:23;21.30;99.90
20158;DHT22;10239;56.820;24.416;2022-10-17T06:33:50;21.70;99.90
20158;DHT22;10239;56.820;24.416;2022-10-17T06:36:18;21.80;99.90
20158;DHT22;10239;56.820;24.416;2022-10-17T06:38:47;21.70;99.90
20158;DHT22;10239;56.820;24.416;2022-10-17T06:41:21;21.40;99.90
20158;DHT22;10239;56.820;24.416;2022-10-17T06:43:51;21.20;99.90
20158;DHT22;10239;56.820;24.416;2022-10-17T06:46:38;20.90;99.90
20158;DHT22;10239;56.820;24.416;2022-10-17T06:49:09;20.50;99.90
20158;DHT22;10239;56.820;24.416;2022-10-17T06:51:42;20.30;99.90
20158;DHT22;10239;56.820;24.416;2022-10-17T06:54:14;20.10;99.90
20158;DHT22;10239;56.820;24.416;2022-10-17T06:57:00;19.80;99.90
20158;DHT22;10239;56.820;24.416;2022-10-17T07:00:00;19.30;99.90
20158;DHT22;10239;56.820;24.416;2022-10-17T07:02:34;18.90;99.90
20158;DHT22;10239;56.820;24.416;2022-10-17T07:05:01;19.00;99.90
20158;DHT22;10239;56.820;24.416;2022-10-17T07:07:31;19.10;99.90
20158;DHT22;10239;56.820;24.416;2022-10-17T07:09:58;18.90;99.90
20158;DHT22;10239;56.820;24.416;2022-10-17T07:12:26;19.00;99.90
20158;DHT22;10239;56.820;24.416;2022-10-17T07:14:54;19.10;99.90
20158;DHT22;10239;56.820;24.416;2022-10-17T07:17:22;19.10;99.90
20158;DHT22;10239;56.820;24.416;2022-10-17T07:19:50;19.10;99.90
20158;DHT22;10239;56.820;24.416;2022-10-17T07:22:17;19.30;99.90
20158;DHT22;10239;56.820;24.416;2022-10-17T07:24:48;19.70;99.90
20158;DHT22;10239;56.820;24.416;2022-10-17T07:27:22;20.00;99.90
20158;DHT22;10239;56.820;24.416;2022-10-17T07:29:50;19.70;99.90
20158;DHT22;10239;56.820;24.416;2022-10-17T07:32:38;19.00;99.90
20158;DHT22;10239;56.820;24.416;2022-10-17T07:35:08;18.30;99.90
20158;DHT22;10239;56.820;24.416;2022-10-17T07:37:37;18.00;99.90
20158;DHT22;10239;56.820;24.416;2022-10-17T07:40:07;18.00;99.90
20158;DHT22;10239;56.820;24.416;2022-10-17T07:42:38;18.10;99.90
20158;DHT22;10239;56.820;24.416;2022-10-17T07:45:11;17.80;99.90
20158;DHT22;10239;56.820;24.416;2022-10-17T07:47:41;17.80;99.90
20158;DHT22;10239;56.820;24.416;2022-10-17T07:50:12;17.70;99.90
20158;DHT22;10239;56.820;24.416;2022-10-17T07:52:39;17.40;99.90
20158;DHT22;10239;56.820;24.416;2022-10-17T07:55:09;17.20;99.90
20158;DHT22;10239;56.820;24.416;2022-10-17T07:57:37;17.10;99.90
20158;DHT22;10239;56.820;24.416;2022-10-17T08:00:07;17.00;99.90
20158;DHT22;10239;56.820;24.416;2022-10-17T08:02:38;16.90;99.90
20158;DHT22;10239;56.820;24.416;2022-10-17T08:05:06;16.90;99.90
20158;DHT22;10239;56.820;24.416;2022-10-17T08:07:34;16.80;99.90
20158;DHT22;10239;56.820;24.416;2022-10-17T08:10:02;16.80;99.90
20158;DHT22;10239;56.820;24.416;2022-10-17T08:12:30;17.00;99.90
20158;DHT22;10239;56.820;24.416;2022-10-17T08:15:00;17.00;99.90
20158;DHT22;10239;56.820;24.416;2022-10-17T08:17:28;17.30;99.90
20158;DHT22;10239;56.820;24.416;2022-10-17T08:19:56;17.30;99.90
20158;DHT22;10239;56.820;24.416;2022-10-17T08:22:24;17.50;99.90
20158;DHT22;10239;56.820;24.416;2022-10-17T08:24:52;17.80;99.90
20158;DHT22;10239;56.820;24.416;2022-10-17T08:27:20;18.10;99.90
20158;DHT22;10239;56.820;24.416;2022-10-17T08:29:51;18.30;99.90
20158;DHT22;10239;56.820;24.416;2022-10-17T08:32:21;18.50;99.90
20158;DHT22;10239;56.820;24.416;2022-10-17T08:34:49;18.70;99.90
20158;DHT22;10239;56.820;24.416;2022-10-17T08:37:16;18.70;99.90
20158;DHT22;10239;56.820;24.416;2022-10-17T08:39:44;18.70;99.90
20158;DHT22;10239;56.820;24.416;2022-10-17T08:48:13;17.80;99.90
20158;DHT22;10239;56.820;24.416;2022-10-17T08:50:50;18.30;99.90
20158;DHT22;10239;56.820;24.416;2022-10-17T08:53:42;19.10;99.90
20158;DHT22;10239;56.820;24.416;2022-10-17T08:56:19;19.40;99.90
20158;DHT22;10239;56.820;24.416;2022-10-17T08:59:20;19.50;99.90
20158;DHT22;10239;56.820;24.416;2022-10-17T09:10:37;20.80;99.90
20158;DHT22;10239;56.820;24.416;2022-10-17T09:13:29;21.50;99.90
20158;DHT22;10239;56.820;24.416;2022-10-17T09:21:43;22.50;99.90
20158;DHT22;10239;56.820;24.416;2022-10-17T09:27:35;23.60;99.90
20158;DHT22;10239;56.820;24.416;2022-10-17T09:33:17;23.70;99.90
20158;DHT22;10239;56.820;24.416;2022-10-17T09:36:04;23.90;99.90
20158;DHT22;10239;56.820;24.416;2022-10-17T09:38:56;24.40;99.90
20158;DHT22;10239;56.820;24.416;2022-10-17T09:41:38;24.50;99.90
20158;DHT22;10239;56.820;24.416;2022-10-17T09:49:57;24.70;99.90
20158;DHT22;10239;56.820;24.416;2022-10-17T09:52:34;24.60;99.90
20158;DHT22;10239;56.820;24.416;2022-10-17T09:58:03;24.50;99.90
20158;DHT22;10239;56.820;24.416;2022-10-17T10:00:34;24.50;99.90
20158;DHT22;10239;56.820;24.416;2022-10-17T10:06:15;24.20;99.90
20158;DHT22;10239;56.820;24.416;2022-10-17T10:09:17;23.50;99.90
20158;DHT22;10239;56.820;24.416;2022-10-17T10:11:50;23.40;99.90
20158;DHT22;10239;56.820;24.416;2022-10-17T10:14:20;23.50;99.90
20158;DHT22;10239;56.820;24.416;2022-10-17T10:16:50;23.50;99.90
20158;DHT22;10239;56.820;24.416;2022-10-17T10:19:32;23.60;99.90
20158;DHT22;10239;56.820;24.416;2022-10-17T10:22:02;23.70;99.90
20158;DHT22;10239;56.820;24.416;2022-10-17T10:24:30;23.80;99.90
20158;DHT22;10239;56.820;24.416;2022-10-17T10:30:29;23.60;99.90
20158;DHT22;10239;56.820;24.416;2022-10-17T10:33:05;23.70;99.90
20158;DHT22;10239;56.820;24.416;2022-10-17T10:35:36;23.80;99.90
20158;DHT22;10239;56.820;24.416;2022-10-17T10:38:09;23.50;99.90
20158;DHT22;10239;56.820;24.416;2022-10-17T10:40:48;23.40;99.90
20158;DHT22;10239;56.820;24.416;2022-10-17T10:43:39;23.00;99.90
20158;DHT22;10239;56.820;24.416;2022-10-17T10:46:27;22.40;99.90
20158;DHT22;10239;56.820;24.416;2022-10-17T10:49:00;22.10;99.90
20158;DHT22;10239;56.820;24.416;2022-10-17T10:51:35;22.10;99.90
20158;DHT22;10239;56.820;24.416;2022-10-17T10:54:29;22.30;99.90
20158;DHT22;10239;56.820;24.416;2022-10-17T10:57:04;22.50;99.90
20158;DHT22;10239;56.820;24.416;2022-10-17T10:59:53;22.50;99.90
20158;DHT22;10239;56.820;24.416;2022-10-17T11:05:25;22.30;99.90
20158;DHT22;10239;56.820;24.416;2022-10-17T11:07:59;22.20;99.90
20158;DHT22;10239;56.820;24.416;2022-10-17T11:10:36;21.90;99.90
20158;DHT22;10239;56.820;24.416;2022-10-17T11:13:22;21.20;99.90
20158;DHT22;10239;56.820;24.416;2022-10-17T11:16:03;20.90;99.90
20158;DHT22;10239;56.820;24.416;2022-10-17T11:18:38;21.00;99.90
20158;DHT22;10239;56.820;24.416;2022-10-17T11:24:26;21.40;99.90
20158;DHT22;10239;56.820;24.416;2022-10-17T11:26:58;21.20;99.90
20158;DHT22;10239;56.820;24.416;2022-10-17T11:29:32;21.10;99.90
20158;DHT22;10239;56.820;24.416;2022-10-17T11:32:10;21.00;99.90
20158;DHT22;10239;56.820;24.416;2022-10-17T11:34:46;20.70;99.90
20158;DHT22;10239;56.820;24.416;2022-10-17T11:37:20;20.70;99.90
20158;DHT22;10239;56.820;24.416;2022-10-17T11:39:56;20.80;99.90
20158;DHT22;10239;56.820;24.416;2022-10-17T11:42:33;20.50;99.90
20158;DHT22;10239;56.820;24.416;2022-10-17T11:45:18;20.30;99.90
20158;DHT22;10239;56.820;24.416;2022-10-17T11:47:53;20.10;99.90
20158;DHT22;10239;56.820;24.416;2022-10-17T11:50:30;20.10;99.90
20158;DHT22;10239;56.820;24.416;2022-10-17T11:53:23;20.10;99.90
20158;DHT22;10239;56.820;24.416;2022-10-17T11:55:53;19.80;99.90
20158;DHT22;10239;56.820;24.416;2022-10-17T11:58:44;19.80;99.90
20158;DHT22;10239;56.820;24.416;2022-10-17T12:01:38;19.80;99.90
20158;DHT22;10239;56.820;24.416;2022-10-17T12:04:37;19.80;99.90
20158;DHT22;10239;56.820;24.416;2022-10-17T12:10:29;19.70;99.90
20158;DHT22;10239;56.820;24.416;2022-10-17T12:15:55;19.30;99.90
20158;DHT22;10239;56.820;24.416;2022-10-17T12:18:24;19.40;99.90
20158;DHT22;10239;56.820;24.416;2022-10-17T12:20:57;19.20;99.90
20158;DHT22;10239;56.820;24.416;2022-10-17T12:23:29;19.20;99.90
20158;DHT22;10239;56.820;24.416;2022-10-17T12:26:07;19.30;99.90
20158;DHT22;10239;56.820;24.416;2022-10-17T12:28:47;19.10;99.90
20158;DHT22;10239;56.820;24.416;2022-10-17T12:34:00;19.20;99.90
20158;DHT22;10239;56.820;24.416;2022-10-17T12:46:56;19.30;99.90
20158;DHT22;10239;56.820;24.416;2022-10-17T12:49:48;19.00;99.90
20158;DHT22;10239;56.820;24.416;2022-10-17T13:03:21;18.60;99.90
20158;DHT22;10239;56.820;24.416;2022-10-17T13:05:52;18.50;99.90
20158;DHT22;10239;56.820;24.416;2022-10-17T13:08:29;18.40;99.90
20158;DHT22;10239;56.820;24.416;2022-10-17T13:10:59;18.20;99.90
20158;DHT22;10239;56.820;24.416;2022-10-17T13:13:48;18.10;99.90
20158;DHT22;10239;56.820;24.416;2022-10-17T13:16:39;18.10;99.90
20158;DHT22;10239;56.820;24.416;2022-10-17T13:19:16;18.00;99.90
20158;DHT22;10239;56.820;24.416;2022-10-17T13:21:58;17.90;99.90
20158;DHT22;10239;56.820;24.416;2022-10-17T13:24:36;18.00;99.90
20158;DHT22;10239;56.820;24.416;2022-10-17T13:27:05;18.10;99.90
20158;DHT22;10239;56.820;24.416;2022-10-17T13:29:33;18.10;99.90
20158;DHT22;10239;56.820;24.416;2022-10-17T13:32:03;18.00;99.90
20158;DHT22;10239;56.820;24.416;2022-10-17T13:34:32;18.00;99.90
20158;DHT22;10239;56.820;24.416;2022-10-17T13:37:11;18.00;99.90
20158;DHT22;10239;56.820;24.416;2022-10-17T13:39:42;18.00;99.90
20158;DHT22;10239;56.820;24.416;2022-10-17T13:42:26;18.00;99.90
20158;DHT22;10239;56.820;24.416;2022-10-17T13:44:56;17.80;99.90
20158;DHT22;10239;56.820;24.416;2022-10-17T13:47:27;17.60;99.90
20158;DHT22;10239;56.820;24.416;2022-10-17T13:49:55;17.60;99.90
20158;DHT22;10239;56.820;24.416;2022-10-17T13:52:28;17.60;99.90
20158;DHT22;10239;56.820;24.416;2022-10-17T13:55:12;17.60;99.90
20158;DHT22;10239;56.820;24.416;2022-10-17T13:57:43;17.50;99.90
20158;DHT22;10239;56.820;24.416;2022-10-17T14:00:24;17.40;99.90
20158;DHT22;10239;56.820;24.416;2022-10-17T14:02:52;17.20;99.90
20158;DHT22;10239;56.820;24.416;2022-10-17T14:05:20;17.10;99.90
20158;DHT22;10239;56.820;24.416;2022-10-17T14:07:57;17.00;99.90
20158;DHT22;10239;56.820;24.416;2022-10-17T14:10:46;16.80;99.90
20158;DHT22;10239;56.820;24.416;2022-10-17T14:13:22;16.70;99.90
20158;DHT22;10239;56.820;24.416;2022-10-17T14:15:55;16.60;99.90
20158;DHT22;10239;56.820;24.416;2022-10-17T14:18:35;16.40;99.90
20158;DHT22;10239;56.820;24.416;2022-10-17T14:21:04;16.20;99.90
20158;DHT22;10239;56.820;24.416;2022-10-17T14:26:53;16.00;99.90
20158;DHT22;10239;56.820;24.416;2022-10-17T14:31:59;15.80;99.90
20158;DHT22;10239;56.820;24.416;2022-10-17T14:34:34;15.70;99.90
20158;DHT22;10239;56.820;24.416;2022-10-17T14:37:12;15.60;99.90
20158;DHT22;10239;56.820;24.416;2022-10-17T14:39:50;15.40;99.90
20158;DHT22;10239;56.820;24.416;2022-10-17T14:42:21;15.30;99.90
20158;DHT22;10239;56.820;24.416;2022-10-17T14:44:52;15.20;99.90
20158;DHT22;10239;56.820;24.416;2022-10-17T14:47:24;15.10;99.90
20158;DHT22;10239;56.820;24.416;2022-10-17T14:52:39;14.90;99.90
20158;DHT22;10239;56.820;24.416;2022-10-17T14:55:25;14.80;99.90
20158;DHT22;10239;56.820;24.416;2022-10-17T14:57:53;14.70;99.90
20158;DHT22;10239;56.820;24.416;2022-10-17T15:00:21;14.60;99.90
20158;DHT22;10239;56.820;24.416;2022-10-17T15:02:50;14.50;99.90
20158;DHT22;10239;56.820;24.416;2022-10-17T15:05:18;14.40;99.90
20158;DHT22;10239;56.820;24.416;2022-10-17T15:07:46;14.40;99.90
20158;DHT22;10239;56.820;24.416;2022-10-17T15:10:33;14.30;99.90
20158;DHT22;10239;56.820;24.416;2022-10-17T15:13:02;14.10;99.90
20158;DHT22;10239;56.820;24.416;2022-10-17T15:15:51;14.10;99.90
20158;DHT22;10239;56.820;24.416;2022-10-17T15:18:18;14.00;99.90
20158;DHT22;10239;56.820;24.416;2022-10-17T15:20:46;13.90;99.90
20158;DHT22;10239;56.820;24.416;2022-10-17T15:23:25;13.90;99.90
20158;DHT22;10239;56.820;24.416;2022-10-17T15:25:53;13.80;99.90
20158;DHT22;10239;56.820;24.416;2022-10-17T15:28:20;13.70;99.90
20158;DHT22;10239;56.820;24.416;2022-10-17T15:30:48;13.60;99.90
20158;DHT22;10239;56.820;24.416;2022-10-17T15:33:15;13.60;99.90
20158;DHT22;10239;56.820;24.416;2022-10-17T15:35:43;13.50;99.90
20158;DHT22;10239;56.820;24.416;2022-10-17T15:38:12;13.40;99.90
20158;DHT22;10239;56.820;24.416;2022-10-17T15:40:44;13.30;99.90
20158;DHT22;10239;56.820;24.416;2022-10-17T15:43:15;13.30;99.90
20158;DHT22;10239;56.820;24.416;2022-10-17T15:45:46;13.30;99.90
20158;DHT22;10239;56.820;24.416;2022-10-17T15:48:28;13.30;99.90
20158;DHT22;10239;56.820;24.416;2022-10-17T15:50:56;13.20;99.90
20158;DHT22;10239;56.820;24.416;2022-10-17T15:53:23;13.20;99.90
20158;DHT22;10239;56.820;24.416;2022-10-17T15:55:51;13.10;99.90
20158;DHT22;10239;56.820;24.416;2022-10-17T15:58:18;13.20;99.90
20158;DHT22;10239;56.820;24.416;2022-10-17T16:00:46;13.10;99.90
20158;DHT22;10239;56.820;24.416;2022-10-17T16:03:14;13.10;99.90
20158;DHT22;10239;56.820;24.416;2022-10-17T16:05:42;13.10;99.90
20158;DHT22;10239;56.820;24.416;2022-10-17T16:08:09;13.10;99.90
20158;DHT22;10239;56.820;24.416;2022-10-17T16:10:39;13.10;99.90
20158;DHT22;10239;56.820;24.416;2022-10-17T16:13:16;13.20;99.90
20158;DHT22;10239;56.820;24.416;2022-10-17T16:15:44;13.10;99.90
20158;DHT22;10239;56.820;24.416;2022-10-17T16:18:12;13.20;99.90
20158;DHT22;10239;56.820;24.416;2022-10-17T16:20:40;13.20;99.90
20158;DHT22;10239;56.820;24.416;2022-10-17T16:23:09;13.20;99.90
20158;DHT22;10239;56.820;24.416;2022-10-17T16:25:37;13.30;99.90
20158;DHT22;10239;56.820;24.416;2022-10-17T16:28:06;13.30;99.90
20158;DHT22;10239;56.820;24.416;2022-10-17T16:30:40;13.40;99.90
20158;DHT22;10239;56.820;24.416;2022-10-17T16:33:08;13.50;99.90
20158;DHT22;10239;56.820;24.416;2022-10-17T16:35:37;13.40;99.90
20158;DHT22;10239;56.820;24.416;2022-10-17T16:38:05;13.40;99.90
20158;DHT22;10239;56.820;24.416;2022-10-17T16:40:34;13.50;99.90
20158;DHT22;10239;56.820;24.416;2022-10-17T16:43:04;13.40;99.90
20158;DHT22;10239;56.820;24.416;2022-10-17T16:45:31;13.50;99.90
20158;DHT22;10239;56.820;24.416;2022-10-17T16:47:59;13.50;99.90
20158;DHT22;10239;56.820;24.416;2022-10-17T16:50:26;13.50;99.90
20158;DHT22;10239;56.820;24.416;2022-10-17T16:52:54;13.60;99.90
20158;DHT22;10239;56.820;24.416;2022-10-17T16:55:21;13.60;99.90
20158;DHT22;10239;56.820;24.416;2022-10-17T16:57:50;13.60;99.90
20158;DHT22;10239;56.820;24.416;2022-10-17T17:00:18;13.60;99.90
20158;DHT22;10239;56.820;24.416;2022-10-17T17:02:48;13.70;99.90
20158;DHT22;10239;56.820;24.416;2022-10-17T17:05:16;13.70;99.90
20158;DHT22;10239;56.820;24.416;2022-10-17T17:07:44;13.70;99.90
20158;DHT22;10239;56.820;24.416;2022-10-17T17:10:13;13.70;99.90
20158;DHT22;10239;56.820;24.416;2022-10-17T17:12:41;13.60;99.90
20158;DHT22;10239;56.820;24.416;2022-10-17T17:15:08;13.60;99.90
20158;DHT22;10239;56.820;24.416;2022-10-17T17:17:35;13.60;99.90
20158;DHT22;10239;56.820;24.416;2022-10-17T17:20:17;13.60;99.90
20158;DHT22;10239;56.820;24.416;2022-10-17T17:22:44;13.60;99.90
20158;DHT22;10239;56.820;24.416;2022-10-17T17:25:12;13.40;99.90
20158;DHT22;10239;56.820;24.416;2022-10-17T17:27:40;13.40;99.90
20158;DHT22;10239;56.820;24.416;2022-10-17T17:30:07;13.20;99.90
20158;DHT22;10239;56.820;24.416;2022-10-17T17:32:35;13.20;99.90
20158;DHT22;10239;56.820;24.416;2022-10-17T17:35:03;13.10;99.90
20158;DHT22;10239;56.820;24.416;2022-10-17T17:37:30;13.10;99.90
20158;DHT22;10239;56.820;24.416;2022-10-17T17:39:58;13.20;99.90